Durham, Canada
Current Conditions -  °F | °C
As of 10:30 PM on Saturday 22 Nov 2014 (Local Time) from CYVV Reporting Station
Light Rain Light Rain  
Wind Chill: 34°   Ceiling: 300
Heat Index: 41°   Visibility: 1mi
Dew Point: 41°   Wind: 12mph
Humidity: 100%   Direction: 230°SW
Pressure: 29.85"   Gusts: 18mph
Location:  44.18°N, 80.82°W
Report Text: CYVV 230330Z 23010G16KT 1SM -RA BR OVC003 05/05 A2985 RMK FG3ST5 SLP117
Loading
Personal Weather Stations






























Interactive Weather Map New forecast layout! Learn more

10-Day Weather Forecast

Advertisements
Track Severe Weather on mobile